Allentown, New Jersey
Current Conditions -  °F | °C
As of 9:58 AM on Sunday 23 Nov 2014 (Local Time) from KWRI Reporting Station
Clear Clear  
Wind Chill: 44°   Ceiling: Unl
Heat Index: 49°   Visibility: 10mi
Dew Point: 22°   Wind: 10mph
Humidity: 36%   Direction: 260°W
Pressure: 30.21"   Gusts: NA
Location:  40.18°N, 74.58°W
Report Text: KWRI 231458Z AUTO 26009KT 10SM CLR 09/M05 A3021 RMK AO2 SLP234 T00931053 50001
Loading
Personal Weather Stations






























Interactive Weather Map New forecast layout! Learn more

10-Day Weather Forecast

Advertisements
Track Severe Weather on mobile